Time;durP1;ratioP1;P1;durP2;ratioP2;P2;SDS_P1;SDS_P2;PMS_P1;PMS_P2;Temp;Humidity;BMP_temperature;BMP_pressure;BME280_temperature;BME280_humidity;BME280_pressure;Samples;Min_cycle;Max_cycle;Signal;HPM_P1;HPM_P2
2023/07/13 00:00:45;;;;;;;;;;;;;;;-144.99;100.00;52280.97;5027499;28;19959;-70
2023/07/13 00:03:13;;;;;;;;;;;;;;;-144.99;100.00;52272.81;5029762;28;20276;-69
2023/07/13 00:05:39;;;;;;;;;;;;;;;-144.99;100.00;52285.03;5028446;28;20373;-68
2023/07/13 00:08:06;;;;;;;;;;;;;;;-144.99;100.00;52313.56;5032903;28;19940;-67
2023/07/13 00:10:33;;;;;;;;;;;;;;;-144.99;100.00;52266.69;5028307;28;19939;-67
2023/07/13 00:12:59;;;;;;;;;;;;;;;-144.99;100.00;52289.13;5029570;28;19978;-67
2023/07/13 00:15:29;;;;;;;;;;;;;;;-144.99;100.00;52289.13;5026696;28;19958;-70
2023/07/13 00:17:56;;;;;;;;;;;;;;;-144.99;100.00;52248.34;5029509;28;20022;-71
2023/07/13 00:20:24;;;;;;;;;;;;;;;-144.99;100.00;52250.38;5029580;28;20066;-70
2023/07/13 00:22:53;;;;;;;;;;;;;;;-144.99;100.00;52264.66;5019412;28;20305;-69
2023/07/13 00:25:19;;;;;;;;;;;;;;;-144.99;100.00;52266.69;5025933;28;20008;-69
2023/07/13 00:27:48;;;;;;;;;;;;;;;-144.99;100.00;52305.41;5025529;28;20462;-69
2023/07/13 00:30:15;;;;;;;;;;;;;;;-144.99;100.00;52293.19;5029148;28;19965;-68
2023/07/13 00:32:43;;;;;;;;;;;;;;;-144.99;100.00;52299.31;5021411;28;19963;-68
2023/07/13 00:35:10;;;;;;;;;;;;;;;-144.99;100.00;52276.88;5029826;28;19953;-69
2023/07/13 00:37:37;;;;;;;;;;;;;;;-144.99;100.00;52268.72;5024975;28;19972;-67
2023/07/13 00:40:04;;;;;;;;;;;;;;;-144.99;100.00;52313.56;5029664;28;20540;-66
2023/07/13 00:42:31;;;;;;;;;;;;;;;-144.99;100.00;52309.50;5025245;28;20347;-65
2023/07/13 00:45:08;;;;;;;;;;;;;;;-144.99;100.00;52297.25;5023091;28;19941;-66
2023/07/13 00:47:35;;;;;;;;;;;;;;;-144.99;100.00;52276.88;5027228;28;19950;-65
2023/07/13 00:50:03;;;;;;;;;;;;;;;-144.99;100.00;52285.03;5024323;28;19962;-64
2023/07/13 00:52:30;;;;;;;;;;;;;;;-144.99;100.00;52264.66;5029034;28;19968;-65
2023/07/13 00:54:57;;;;;;;;;;;;;;;-144.99;100.00;52276.88;5028957;28;20451;-67
2023/07/13 00:57:24;;;;;;;;;;;;;;;-144.99;100.00;52313.56;5027544;28;20118;-67
2023/07/13 00:59:53;;;;;;;;;;;;;;;-144.99;100.00;52248.34;5028390;28;20281;-68
2023/07/13 01:02:21;;;;;;;;;;;;;;;-144.99;100.00;52264.66;5024176;28;20195;-68
2023/07/13 01:04:48;;;;;;;;;;;;;;;-144.99;100.00;52291.16;5022794;28;19978;-67
2023/07/13 01:07:16;;;;;;;;;;;;;;;-144.99;100.00;52293.19;5021654;28;19945;-68
2023/07/13 01:09:44;;;;;;;;;;;;;;;-144.99;100.00;52264.66;5027744;28;20387;-68
2023/07/13 01:12:11;;;;;;;;;;;;;;;-144.99;100.00;52260.56;5022582;28;20041;-68
2023/07/13 01:14:38;;;;;;;;;;;;;;;-144.99;100.00;52301.34;5022752;28;20086;-68
2023/07/13 01:19:41;;;;;;;;;;;;;;;-144.99;100.00;52297.25;5317848;22;19966;-74
2023/07/13 01:22:11;;;;;;;;;;;;;;;-144.99;100.00;52258.53;5038504;28;20693;-75
2023/07/13 01:24:37;;;;;;;;;;;;;;;-144.99;100.00;52278.91;5037584;28;20327;-76
2023/07/13 01:27:05;;;;;;;;;;;;;;;-144.99;100.00;52276.88;5045242;28;20036;-75
2023/07/13 01:29:32;;;;;;;;;;;;;;;-144.99;100.00;52303.38;5029094;28;19968;-76
2023/07/13 01:32:00;;;;;;;;;;;;;;;-144.99;100.00;52280.97;5014039;28;19986;-76
2023/07/13 01:34:26;;;;;;;;;;;;;;;-144.99;100.00;52268.72;5027286;28;19955;-75
2023/07/13 01:36:53;;;;;;;;;;;;;;;-144.99;100.00;52268.72;5017707;28;19947;-75
2023/07/13 01:39:21;;;;;;;;;;;;;;;-144.99;100.00;52287.06;4997795;28;19956;-74
2023/07/13 01:41:48;;;;;;;;;;;;;;;-144.99;100.00;52285.03;5020845;28;19925;-75
2023/07/13 01:44:14;;;;;;;;;;;;;;;-144.99;100.00;52280.97;5017146;28;19925;-75
2023/07/13 01:46:41;;;;;;;;;;;;;;;-144.99;100.00;52246.31;5028876;28;19947;-76
2023/07/13 01:49:08;;;;;;;;;;;;;;;-144.99;100.00;52293.19;5025161;28;19954;-76
2023/07/13 01:51:34;;;;;;;;;;;;;;;-144.99;100.00;52280.97;5016587;28;19955;-75
2023/07/13 01:54:01;;;;;;;;;;;;;;;-144.99;100.00;52297.25;5023355;28;19947;-75
2023/07/13 01:56:29;;;;;;;;;;;;;;;-144.99;100.00;52325.81;5026992;28;19961;-75
2023/07/13 01:58:55;;;;;;;;;;;;;;;-144.99;100.00;52305.41;5023476;28;19959;-75
2023/07/13 02:01:22;;;;;;;;;;;;;;;-144.99;100.00;52285.03;5027083;28;20011;-76
2023/07/13 02:03:48;;;;;;;;;;;;;;;-144.99;100.00;52289.13;5026750;28;19941;-75
2023/07/13 02:06:15;;;;;;;;;;;;;;;-144.99;100.00;52285.03;5027022;28;19949;-75
2023/07/13 02:08:41;;;;;;;;;;;;;;;-144.99;100.00;52305.41;5027546;28;19966;-75
2023/07/13 02:11:08;;;;;;;;;;;;;;;-144.99;100.00;52289.13;5030901;28;19925;-76
2023/07/13 02:13:36;;;;;;;;;;;;;;;-144.99;100.00;52276.88;5031061;28;19945;-75
2023/07/13 02:16:03;;;;;;;;;;;;;;;-144.99;100.00;52289.13;5030353;28;19991;-76
2023/07/13 02:18:29;;;;;;;;;;;;;;;-144.99;100.00;52313.56;5025980;28;19966;-74
2023/07/13 02:20:56;;;;;;;;;;;;;;;-144.99;100.00;52309.50;5030360;28;19977;-76
2023/07/13 02:23:22;;;;;;;;;;;;;;;-144.99;100.00;52301.34;5030900;28;19940;-78
2023/07/13 02:25:49;;;;;;;;;;;;;;;-144.99;100.00;52309.50;5030922;28;19952;-78
2023/07/13 02:28:16;;;;;;;;;;;;;;;-144.99;100.00;52301.34;5030846;28;20456;-78
2023/07/13 02:30:43;;;;;;;;;;;;;;;-144.99;100.00;52309.50;5030539;28;20038;-77
2023/07/13 02:33:10;;;;;;;;;;;;;;;-144.99;100.00;52260.56;5031294;28;19940;-77
2023/07/13 02:35:37;;;;;;;;;;;;;;;-144.99;100.00;52264.66;5030412;28;20404;-79
2023/07/13 02:38:03;;;;;;;;;;;;;;;-144.99;100.00;52321.72;5030484;28;19956;-78
2023/07/13 02:40:32;;;;;;;;;;;;;;;-144.99;100.00;52315.59;5030435;28;19958;-77
2023/07/13 02:42:59;;;;;;;;;;;;;;;-144.99;100.00;52305.41;5029520;28;19974;-78
2023/07/13 02:45:26;;;;;;;;;;;;;;;-144.99;100.00;52291.16;5026799;28;19938;-75
2023/07/13 02:47:54;;;;;;;;;;;;;;;-144.99;100.00;52272.81;5029956;28;19937;-74
2023/07/13 02:50:20;;;;;;;;;;;;;;;-144.99;100.00;52297.25;5030061;28;19986;-76
2023/07/13 02:52:47;;;;;;;;;;;;;;;-144.99;100.00;52248.34;5029923;28;19939;-75
2023/07/13 02:55:13;;;;;;;;;;;;;;;-144.99;100.00;52272.81;5030182;28;19943;-75
2023/07/13 02:57:40;;;;;;;;;;;;;;;-144.99;100.00;52321.72;5029614;28;19940;-75
2023/07/13 03:00:09;;;;;;;;;;;;;;;-144.99;100.00;52293.19;5029832;28;19957;-76
2023/07/13 03:02:36;;;;;;;;;;;;;;;-144.99;100.00;52321.72;5027490;28;19933;-75
2023/07/13 03:05:04;;;;;;;;;;;;;;;-144.99;100.00;52268.72;5030191;28;20432;-76
2023/07/13 03:07:32;;;;;;;;;;;;;;;-144.99;100.00;52280.97;5029739;28;19970;-73
2023/07/13 03:09:58;;;;;;;;;;;;;;;-144.99;100.00;52309.50;5030276;28;20340;-76
2023/07/13 03:12:25;;;;;;;;;;;;;;;-144.99;100.00;52280.97;5029942;28;19957;-74
2023/07/13 03:14:52;;;;;;;;;;;;;;;-144.99;100.00;52289.13;5029972;28;19935;-76
2023/07/13 03:17:18;;;;;;;;;;;;;;;-144.99;100.00;52295.22;5027320;28;20049;-74
2023/07/13 03:19:49;;;;;;;;;;;;;;;-144.99;100.00;52283.00;5028216;28;19961;-74
2023/07/13 03:22:17;;;;;;;;;;;;;;;-144.99;100.00;52289.13;5030389;28;19961;-75
2023/07/13 03:24:43;;;;;;;;;;;;;;;-144.99;100.00;52317.66;5029648;28;19941;-74
2023/07/13 03:27:10;;;;;;;;;;;;;;;-144.99;100.00;52268.72;5029294;28;19972;-71
2023/07/13 03:29:36;;;;;;;;;;;;;;;-144.99;100.00;52276.88;5028834;28;20016;-71
2023/07/13 03:32:04;;;;;;;;;;;;;;;-144.99;100.00;52280.97;5029002;28;19958;-71
2023/07/13 03:34:31;;;;;;;;;;;;;;;-144.99;100.00;52327.84;5029136;28;19983;-69
2023/07/13 03:36:57;;;;;;;;;;;;;;;-144.99;100.00;52280.97;5029079;28;19944;-71
2023/07/13 03:39:25;;;;;;;;;;;;;;;-144.99;100.00;52278.91;5029100;28;19937;-71
2023/07/13 03:41:52;;;;;;;;;;;;;;;-144.99;100.00;52309.50;5031571;28;19938;-71
2023/07/13 03:44:18;;;;;;;;;;;;;;;-144.99;100.00;52299.31;5032135;28;20378;-71
2023/07/13 03:46:45;;;;;;;;;;;;;;;-144.99;100.00;52336.00;5031036;28;19951;-71
2023/07/13 03:49:12;;;;;;;;;;;;;;;-144.99;100.00;52297.25;5029206;28;20319;-71
2023/07/13 03:51:38;;;;;;;;;;;;;;;-144.99;100.00;52325.81;5028695;28;20013;-71
2023/07/13 03:54:05;;;;;;;;;;;;;;;-144.99;100.00;52268.72;5029000;28;19942;-71
2023/07/13 03:56:33;;;;;;;;;;;;;;;-144.99;100.00;52305.41;5028498;28;19945;-70
2023/07/13 03:59:00;;;;;;;;;;;;;;;-144.99;100.00;52297.25;5028507;28;19961;-71
2023/07/13 04:01:26;;;;;;;;;;;;;;;-144.99;100.00;52248.34;5029440;28;19946;-71
2023/07/13 04:03:53;;;;;;;;;;;;;;;-144.99;100.00;52268.72;5028606;28;19941;-71
2023/07/13 04:06:21;;;;;;;;;;;;;;;-144.99;100.00;52285.03;5028838;28;20038;-72
2023/07/13 04:08:49;;;;;;;;;;;;;;;-144.99;100.00;52283.00;5028118;28;20079;-74
2023/07/13 04:11:15;;;;;;;;;;;;;;;-144.99;100.00;52301.34;5028532;28;20049;-73
2023/07/13 04:13:43;;;;;;;;;;;;;;;-144.99;100.00;52309.50;5028192;28;19950;-74
2023/07/13 04:16:10;;;;;;;;;;;;;;;-144.99;100.00;52264.66;5028622;28;19946;-74
2023/07/13 04:18:37;;;;;;;;;;;;;;;-144.99;100.00;52276.88;5024378;28;20000;-74
2023/07/13 04:21:04;;;;;;;;;;;;;;;-144.99;100.00;52295.22;5025252;28;19948;-74
2023/07/13 04:23:30;;;;;;;;;;;;;;;-144.99;100.00;52311.53;5028487;28;19945;-73
2023/07/13 04:25:57;;;;;;;;;;;;;;;-144.99;100.00;52297.25;5029050;28;20385;-72
2023/07/13 04:28:24;;;;;;;;;;;;;;;-144.99;100.00;52325.81;5028230;28;19974;-72
2023/07/13 04:30:52;;;;;;;;;;;;;;;-144.99;100.00;52276.88;5027628;28;20354;-71
2023/07/13 04:33:22;;;;;;;;;;;;;;;-144.99;100.00;52270.78;5024942;28;19942;-73
2023/07/13 04:35:48;;;;;;;;;;;;;;;-144.99;100.00;52297.25;5027938;28;19950;-75
2023/07/13 04:38:15;;;;;;;;;;;;;;;-144.99;100.00;52258.53;5027319;28;20073;-76
2023/07/13 04:40:43;;;;;;;;;;;;;;;-144.99;100.00;52283.00;5025965;28;20020;-75
2023/07/13 04:43:09;;;;;;;;;;;;;;;-144.99;100.00;52276.88;5026879;28;19945;-77
2023/07/13 04:45:36;;;;;;;;;;;;;;;-144.99;100.00;52301.34;5028479;28;19979;-77
2023/07/13 04:48:04;;;;;;;;;;;;;;;-144.99;100.00;52315.59;5028069;28;19946;-78
2023/07/13 04:50:31;;;;;;;;;;;;;;;-144.99;100.00;52301.34;5031436;28;19946;-77
2023/07/13 04:52:58;;;;;;;;;;;;;;;-144.99;100.00;52260.56;5034055;28;19962;-76
2023/07/13 04:55:24;;;;;;;;;;;;;;;-144.99;100.00;52307.47;5010641;28;19987;-77
2023/07/13 04:57:52;;;;;;;;;;;;;;;-144.99;100.00;52268.72;5027787;28;20326;-76
2023/07/13 05:00:18;;;;;;;;;;;;;;;-144.99;100.00;52289.13;5028229;28;20421;-77
2023/07/13 05:02:46;;;;;;;;;;;;;;;-144.99;100.00;52268.72;5028218;28;20042;-77
2023/07/13 05:05:14;;;;;;;;;;;;;;;-144.99;100.00;52317.66;5028292;28;19942;-78
2023/07/13 05:07:41;;;;;;;;;;;;;;;-144.99;100.00;52280.97;5027940;28;19951;-78
2023/07/13 05:10:08;;;;;;;;;;;;;;;-144.99;100.00;52250.38;5028272;28;19963;-78
2023/07/13 05:12:35;;;;;;;;;;;;;;;-144.99;100.00;52260.56;5027539;28;19978;-78
2023/07/13 05:15:02;;;;;;;;;;;;;;;-144.99;100.00;52301.34;5028435;28;19944;-78
2023/07/13 05:17:28;;;;;;;;;;;;;;;-144.99;100.00;52285.03;5026942;28;19955;-76
2023/07/13 05:19:55;;;;;;;;;;;;;;;-144.99;100.00;52297.25;5029338;28;19961;-79
2023/07/13 05:22:23;;;;;;;;;;;;;;;-144.99;100.00;52256.50;5029085;28;19937;-78
2023/07/13 05:24:49;;;;;;;;;;;;;;;-144.99;100.00;52268.72;5028433;28;19962;-78
2023/07/13 05:27:16;;;;;;;;;;;;;;;-144.99;100.00;52309.50;5028811;28;19941;-78
2023/07/13 05:29:42;;;;;;;;;;;;;;;-144.99;100.00;52305.41;5027743;28;19963;-78
2023/07/13 05:32:09;;;;;;;;;;;;;;;-144.99;100.00;52305.41;5028063;28;19953;-78
2023/07/13 05:34:36;;;;;;;;;;;;;;;-144.99;100.00;52297.25;5028157;28;19945;-77
2023/07/13 05:37:02;;;;;;;;;;;;;;;-144.99;100.00;52293.19;5028857;28;19946;-77
2023/07/13 05:39:30;;;;;;;;;;;;;;;-144.99;100.00;52252.44;5027691;28;20062;-78
2023/07/13 05:41:57;;;;;;;;;;;;;;;-144.99;100.00;52289.13;5021949;28;20280;-77
2023/07/13 05:44:23;;;;;;;;;;;;;;;-144.99;100.00;52250.38;5027933;28;19968;-77
2023/07/13 05:46:50;;;;;;;;;;;;;;;-144.99;100.00;52293.19;5032723;28;19957;-78
2023/07/13 05:49:16;;;;;;;;;;;;;;;-144.99;100.00;52301.34;5032726;28;20006;-78
2023/07/13 05:51:43;;;;;;;;;;;;;;;-144.99;100.00;52248.34;5033776;28;19965;-78
2023/07/13 05:54:10;;;;;;;;;;;;;;;-144.99;100.00;52285.03;5032827;28;19942;-77
2023/07/13 05:56:38;;;;;;;;;;;;;;;-144.99;100.00;52264.66;5031737;28;20422;-76
2023/07/13 05:59:04;;;;;;;;;;;;;;;-144.99;100.00;52270.78;5031410;28;19958;-76
2023/07/13 06:01:31;;;;;;;;;;;;;;;-144.99;100.00;52262.63;5039570;28;19954;-76
2023/07/13 06:03:58;;;;;;;;;;;;;;;-144.99;100.00;52293.19;5031923;28;20002;-76
2023/07/13 06:06:25;;;;;;;;;;;;;;;-144.99;100.00;52285.03;5032359;28;19941;-77
2023/07/13 06:08:51;;;;;;;;;;;;;;;-144.99;100.00;52289.13;5031546;28;19953;-75
2023/07/13 06:11:20;;;;;;;;;;;;;;;-144.99;100.00;52268.72;5031980;28;19937;-78
2023/07/13 06:13:48;;;;;;;;;;;;;;;-144.99;100.00;52252.44;5031838;28;19949;-77
2023/07/13 06:16:15;;;;;;;;;;;;;;;-144.99;100.00;52248.34;5030087;28;19943;-78
2023/07/13 06:18:42;;;;;;;;;;;;;;;-144.99;100.00;52268.72;5029980;28;19972;-77
2023/07/13 06:21:09;;;;;;;;;;;;;;;-144.99;100.00;52266.69;5031593;28;19945;-77
2023/07/13 06:23:36;;;;;;;;;;;;;;;-144.99;100.00;52293.19;5032437;28;19943;-76
2023/07/13 06:26:03;;;;;;;;;;;;;;;-144.99;100.00;52264.66;5030706;28;19985;-77
2023/07/13 06:28:30;;;;;;;;;;;;;;;-144.99;100.00;52248.34;5033779;28;19957;-77
2023/07/13 06:30:58;;;;;;;;;;;;;;;-144.99;100.00;52258.53;5029316;28;20008;-77
2023/07/13 06:33:24;;;;;;;;;;;;;;;-144.99;100.00;52280.97;5029879;28;19957;-76
2023/07/13 06:35:51;;;;;;;;;;;;;;;-144.99;100.00;52280.97;5032358;28;19938;-78
2023/07/13 06:38:17;;;;;;;;;;;;;;;-144.99;99.86;52252.44;5032414;28;20005;-78
2023/07/13 06:40:44;;;;;;;;;;;;;;;-144.99;99.15;52254.47;5031304;28;20397;-77
2023/07/13 06:43:10;;;;;;;;;;;;;;;-144.99;99.95;52256.50;5027112;28;19946;-77
2023/07/13 06:45:41;;;;;;;;;;;;;;;-144.99;100.00;52252.44;5033224;28;20020;-77
2023/07/13 06:48:09;;;;;;;;;;;;;;;-144.99;100.00;52258.53;5028645;28;19954;-76
2023/07/13 06:50:36;;;;;;;;;;;;;;;-144.99;100.00;52248.34;5030424;28;19945;-76
2023/07/13 06:53:02;;;;;;;;;;;;;;;-144.99;100.00;52303.38;5032350;28;20372;-77
2023/07/13 06:55:29;;;;;;;;;;;;;;;-144.99;99.63;52234.09;5038350;28;20016;-79
2023/07/13 06:57:55;;;;;;;;;;;;;;;-144.99;99.23;52250.38;5035044;28;20366;-77
2023/07/13 07:00:22;;;;;;;;;;;;;;;-144.99;98.84;52268.72;5031260;28;19937;-78
2023/07/13 07:02:48;;;;;;;;;;;;;;;-144.99;99.12;52244.28;5031874;28;19944;-77
2023/07/13 07:05:16;;;;;;;;;;;;;;;-144.99;97.82;52238.16;5026962;28;20560;-78
2023/07/13 07:07:43;;;;;;;;;;;;;;;-144.99;97.01;52203.50;5030975;28;19947;-77
2023/07/13 07:10:09;;;;;;;;;;;;;;;-144.99;97.13;52236.13;5030432;28;19966;-77
2023/07/13 07:12:36;;;;;;;;;;;;;;;-144.99;96.22;52238.16;5029991;28;20002;-76
2023/07/13 07:15:03;;;;;;;;;;;;;;;-144.99;95.51;52276.88;5031342;28;19944;-78
2023/07/13 07:17:29;;;;;;;;;;;;;;;-144.99;95.83;52256.50;5027928;28;19944;-78
2023/07/13 07:19:56;;;;;;;;;;;;;;;-144.99;94.96;52242.22;5030450;28;20383;-78
2023/07/13 07:22:26;;;;;;;;;;;;;;;-144.99;94.17;52240.19;5030554;28;19946;-78
2023/07/13 07:24:53;;;;;;;;;;;;;;;-144.99;93.59;52191.28;5030860;28;19936;-79
2023/07/13 07:27:20;;;;;;;;;;;;;;;-144.99;92.54;52201.47;5031342;28;19935;-77
2023/07/13 07:29:46;;;;;;;;;;;;;;;-144.99;92.31;52244.28;5027925;28;20319;-79
2023/07/13 07:32:13;;;;;;;;;;;;;;;-144.99;93.29;52230.00;5027968;28;19982;-77
2023/07/13 07:34:39;;;;;;;;;;;;;;;-144.99;94.36;52240.19;5031505;28;19954;-77
2023/07/13 07:37:06;;;;;;;;;;;;;;;-144.99;93.84;52203.50;5031633;28;19983;-76
2023/07/13 07:39:34;;;;;;;;;;;;;;;-144.99;93.22;52232.03;5030087;28;20058;-77
2023/07/13 07:42:00;;;;;;;;;;;;;;;-144.99;92.79;52197.41;5028173;28;19940;-77
2023/07/13 07:44:28;;;;;;;;;;;;;;;-144.99;91.89;52244.28;5031137;28;20001;-77
2023/07/13 07:46:54;;;;;;;;;;;;;;;-144.99;91.33;52223.88;5031118;28;19936;-78
2023/07/13 07:49:21;;;;;;;;;;;;;;;-144.99;91.28;52223.88;5029901;28;20077;-77
2023/07/13 07:51:47;;;;;;;;;;;;;;;-144.99;90.85;52215.75;5030532;28;19973;-78
2023/07/13 07:54:14;;;;;;;;;;;;;;;-144.99;90.21;52227.97;5030653;28;20429;-78
2023/07/13 07:56:42;;;;;;;;;;;;;;;-144.99;89.43;52199.44;5030701;28;19946;-77
2023/07/13 07:59:09;;;;;;;;;;;;;;;-144.99;88.28;52191.28;5030776;28;19993;-78
2023/07/13 08:01:36;;;;;;;;;;;;;;;-144.99;88.26;52207.59;5030687;28;20013;-77
2023/07/13 08:04:03;;;;;;;;;;;;;;;-144.99;87.48;52211.66;5029830;28;20051;-77
2023/07/13 08:06:29;;;;;;;;;;;;;;;-144.99;87.43;52227.97;5030462;28;19956;-76
2023/07/13 08:08:56;;;;;;;;;;;;;;;-144.99;87.14;52166.81;5023948;28;19957;-78
2023/07/13 08:11:23;;;;;;;;;;;;;;;-144.99;86.01;52195.34;5033105;28;19935;-79
2023/07/13 08:13:51;;;;;;;;;;;;;;;-144.99;86.11;52162.75;5032279;28;19961;-76
2023/07/13 08:16:18;;;;;;;;;;;;;;;-144.99;84.30;52246.31;5027690;28;20036;-76
2023/07/13 08:18:44;;;;;;;;;;;;;;;-144.99;84.61;52240.19;5027901;28;19960;-76
2023/07/13 08:21:11;;;;;;;;;;;;;;;-144.99;85.73;52211.66;5028593;28;20023;-77
2023/07/13 08:23:37;;;;;;;;;;;;;;;-144.99;85.28;52232.03;5029785;28;19956;-76
2023/07/13 08:26:04;;;;;;;;;;;;;;;-144.99;85.77;52191.28;5029385;28;20046;-77
2023/07/13 08:28:32;;;;;;;;;;;;;;;-144.99;85.26;52215.75;5028324;28;20330;-76
2023/07/13 08:31:02;;;;;;;;;;;;;;;-144.99;84.81;52158.66;5029013;28;20367;-77
2023/07/13 08:33:28;;;;;;;;;;;;;;;-144.99;82.85;52187.19;5029207;28;20372;-77
2023/07/13 08:35:55;;;;;;;;;;;;;;;-144.99;81.72;52179.06;5027180;28;20033;-77
2023/07/13 08:38:21;;;;;;;;;;;;;;;-144.99;82.07;52195.34;5028649;28;19952;-78
2023/07/13 08:40:50;;;;;;;;;;;;;;;-144.99;82.31;52162.75;5024289;28;20129;-78
2023/07/13 08:43:19;;;;;;;;;;;;;;;-144.99;82.74;52236.13;5030588;28;19959;-77
2023/07/13 08:45:47;;;;;;;;;;;;;;;-144.99;83.43;52227.97;5029821;28;19986;-77
2023/07/13 08:48:20;;;;;;;;;;;;;;;-144.99;84.47;52248.34;5028324;28;20044;-77
2023/07/13 08:50:50;;;;;;;;;;;;;;;-144.99;83.94;52230.00;5027590;28;20308;-76
2023/07/13 08:53:17;;;;;;;;;;;;;;;-144.99;83.48;52227.97;5027315;28;19944;-77
2023/07/13 08:55:44;;;;;;;;;;;;;;;-144.99;83.99;52260.56;5029091;28;20423;-77
2023/07/13 08:58:12;;;;;;;;;;;;;;;-144.99;84.63;52232.03;5029563;28;20315;-77
2023/07/13 09:00:43;;;;;;;;;;;;;;;-144.99;83.91;52215.75;5026317;28;20399;-77
2023/07/13 09:03:15;;;;;;;;;;;;;;;-144.99;82.13;52217.78;5029213;28;20094;-78
2023/07/13 09:05:43;;;;;;;;;;;;;;;-144.99;82.63;52236.13;5029250;28;19948;-77
2023/07/13 09:08:18;;;;;;;;;;;;;;;-144.99;81.36;52189.25;5028365;28;19940;-78
2023/07/13 09:10:45;;;;;;;;;;;;;;;-144.99;79.97;52183.13;5034616;28;20004;-77
2023/07/13 09:13:23;;;;;;;;;;;;;;;-144.99;79.58;52179.06;5038376;28;20417;-77
2023/07/13 09:15:50;;;;;;;;;;;;;;;-144.99;77.99;52199.44;5027885;28;19972;-79
2023/07/13 09:18:20;;;;;;;;;;;;;;;-144.99;76.51;52174.97;5027025;28;19953;-77
2023/07/13 09:20:51;;;;;;;;;;;;;;;-144.99;75.98;52211.66;5028951;28;20007;-77
2023/07/13 09:23:19;;;;;;;;;;;;;;;-144.99;76.47;52187.19;5028427;28;19986;-77
2023/07/13 09:25:50;;;;;;;;;;;;;;;-144.99;76.06;52207.59;5027992;28;20648;-77
2023/07/13 09:28:19;;;;;;;;;;;;;;;-144.99;75.11;52187.19;5028002;28;20054;-77
2023/07/13 09:30:51;;;;;;;;;;;;;;;-144.99;75.22;52195.34;5028016;28;20438;-78
2023/07/13 09:33:17;;;;;;;;;;;;;;;-144.99;74.05;52191.28;5028386;28;20048;-76
2023/07/13 09:35:44;;;;;;;;;;;;;;;-144.99;73.93;52179.06;5026661;28;19984;-78
2023/07/13 09:38:16;;;;;;;;;;;;;;;-144.99;72.41;52154.59;5027886;28;19940;-78
2023/07/13 09:40:54;;;;;;;;;;;;;;;-144.99;72.81;52164.78;5028116;28;19946;-78
2023/07/13 09:43:21;;;;;;;;;;;;;;;-144.99;73.22;52203.50;5024445;28;20074;-78
2023/07/13 09:45:49;;;;;;;;;;;;;;;-144.99;72.90;52101.59;5028372;28;21351;-78
2023/07/13 09:48:17;;;;;;;;;;;;;;;-144.99;71.09;52215.75;5028180;28;19957;-78
2023/07/13 09:50:44;;;;;;;;;;;;;;;-144.99;71.21;52128.09;5026680;28;19968;-78
2023/07/13 09:53:15;;;;;;;;;;;;;;;-144.99;71.58;52119.94;5024482;28;19961;-76
2023/07/13 09:55:43;;;;;;;;;;;;;;;-144.99;69.94;52158.66;5028376;28;20003;-78
2023/07/13 09:58:11;;;;;;;;;;;;;;;-144.99;69.52;52172.94;5027727;28;20384;-77
2023/07/13 10:00:39;;;;;;;;;;;;;;;-144.99;69.06;52187.19;5029493;28;20045;-79
2023/07/13 10:03:07;;;;;;;;;;;;;;;-144.99;69.30;52179.06;5028276;28;19939;-78
2023/07/13 10:05:40;;;;;;;;;;;;;;;-144.99;70.09;52195.34;5028475;28;19939;-78
2023/07/13 10:08:07;;;;;;;;;;;;;;;-144.99;70.73;52138.28;5026406;28;19943;-79
2023/07/13 10:10:36;;;;;;;;;;;;;;;-144.99;68.34;52191.28;5029782;28;20021;-76
2023/07/13 10:13:04;;;;;;;;;;;;;;;-144.99;68.66;52162.75;5027667;28;19925;-77
2023/07/13 10:15:31;;;;;;;;;;;;;;;-144.99;69.52;52146.44;5024167;28;19929;-77
2023/07/13 10:17:57;;;;;;;;;;;;;;;-144.99;68.97;52205.53;5040815;28;19955;-76
2023/07/13 10:20:25;;;;;;;;;;;;;;;-144.99;69.18;52142.38;5048586;28;20392;-76
2023/07/13 10:22:53;;;;;;;;;;;;;;;-144.99;70.03;52174.97;5027472;28;20029;-77
2023/07/13 10:25:20;;;;;;;;;;;;;;;-144.99;70.30;52150.53;5027563;28;20073;-78
2023/07/13 10:27:50;;;;;;;;;;;;;;;-144.99;70.62;52195.34;5027464;28;20327;-76
2023/07/13 10:30:20;;;;;;;;;;;;;;;-144.99;71.75;52183.13;5029101;28;19951;-77
2023/07/13 10:32:47;;;;;;;;;;;;;;;-144.99;72.28;52244.28;5031097;28;20394;-79
2023/07/13 10:35:15;;;;;;;;;;;;;;;-144.99;72.95;52203.50;5041003;28;20005;-77
2023/07/13 10:37:45;;;;;;;;;;;;;;;-144.99;72.97;52142.38;5031693;28;20000;-77
2023/07/13 10:40:15;;;;;;;;;;;;;;;-144.99;72.25;52199.44;5028116;28;19995;-78
2023/07/13 10:42:44;;;;;;;;;;;;;;;-144.99;72.41;52187.19;5028755;28;20034;-78
2023/07/13 10:45:15;;;;;;;;;;;;;;;-144.99;71.40;52146.44;5027669;28;20302;-78
2023/07/13 10:47:41;;;;;;;;;;;;;;;-144.99;69.00;52069.00;5031028;28;19942;-77
2023/07/13 10:50:10;;;;;;;;;;;;;;;-144.99;68.45;52121.97;5030097;28;20070;-78
2023/07/13 10:52:47;;;;;;;;;;;;;;;-144.99;67.12;52166.81;5031854;28;20394;-78
2023/07/13 10:55:33;;;;;;;;;;;;;;;-144.99;66.29;52162.75;5028370;28;20373;-78
2023/07/13 10:58:01;;;;;;;;;;;;;;;-144.99;66.29;52181.09;5012644;28;19935;-78
2023/07/13 11:00:31;;;;;;;;;;;;;;;-144.99;66.62;52183.13;5027374;28;20101;-77
2023/07/13 11:03:00;;;;;;;;;;;;;;;-144.99;66.94;52170.91;5030348;28;19939;-76
2023/07/13 11:05:29;;;;;;;;;;;;;;;-144.99;66.84;52205.53;5030866;28;19945;-77
2023/07/13 11:07:57;;;;;;;;;;;;;;;-144.99;66.95;52179.06;5030157;28;20031;-76
2023/07/13 11:10:48;;;;;;;;;;;;;;;-144.99;66.82;52160.72;5031207;28;19983;-78
2023/07/13 11:13:29;;;;;;;;;;;;;;;-144.99;66.29;52177.00;5029965;28;20335;-77
2023/07/13 11:15:57;;;;;;;;;;;;;;;-144.99;66.99;52158.66;5027778;28;19975;-77
2023/07/13 11:18:25;;;;;;;;;;;;;;;-144.99;66.66;52109.75;5028801;28;19961;-77
2023/07/13 11:20:51;;;;;;;;;;;;;;;-144.99;65.92;52126.06;5030759;28;19949;-77
2023/07/13 11:23:20;;;;;;;;;;;;;;;-144.99;65.54;52089.38;5031312;28;19943;-78
2023/07/13 11:25:48;;;;;;;;;;;;;;;-144.99;64.39;52134.22;5034388;28;19931;-77
2023/07/13 11:28:21;;;;;;;;;;;;;;;-144.99;64.19;52109.75;5033219;28;19959;-79
2023/07/13 11:30:49;;;;;;;;;;;;;;;-144.99;64.41;52113.84;5032760;28;20376;-78
2023/07/13 11:33:18;;;;;;;;;;;;;;;-144.99;64.91;52132.19;5031717;28;20308;-78
2023/07/13 11:35:52;;;;;;;;;;;;;;;-144.99;64.75;52130.13;5031981;28;20037;-79
2023/07/13 11:38:20;;;;;;;;;;;;;;;-144.99;65.71;52166.81;5032967;28;19983;-78
2023/07/13 11:40:48;;;;;;;;;;;;;;;-144.99;66.41;52174.97;5032432;28;19971;-79
2023/07/13 11:43:15;;;;;;;;;;;;;;;-144.99;68.45;52213.69;5028849;28;19990;-77
2023/07/13 11:45:42;;;;;;;;;;;;;;;-144.99;70.46;52256.50;5032819;28;19943;-77
2023/07/13 11:48:21;;;;;;;;;;;;;;;-144.99;72.32;52248.34;5032499;28;20001;-79
2023/07/13 11:50:51;;;;;;;;;;;;;;;-144.99;76.54;52285.03;5030077;28;20047;-78
2023/07/13 11:53:17;;;;;;;;;;;;;;;-144.99;78.19;52270.78;5032826;28;20018;-79
2023/07/13 11:55:44;;;;;;;;;;;;;;;-144.99;80.22;52244.28;5019799;28;20036;-80
2023/07/13 11:58:11;;;;;;;;;;;;;;;-144.99;82.00;52305.41;5040209;28;19969;-79
2023/07/13 12:00:41;;;;;;;;;;;;;;;-144.99;84.15;52285.03;5048003;28;19953;-79
2023/07/13 12:03:07;;;;;;;;;;;;;;;-144.99;85.57;52268.72;5047603;28;19963;-77
2023/07/13 12:05:36;;;;;;;;;;;;;;;-144.99;86.62;52297.25;5047587;28;19958;-76
2023/07/13 12:08:09;;;;;;;;;;;;;;;-144.99;88.83;52301.34;5041811;28;19979;-79
2023/07/13 12:10:36;;;;;;;;;;;;;;;-144.99;90.03;52309.50;5037124;28;19956;-79
2023/07/13 12:13:03;;;;;;;;;;;;;;;-144.99;93.12;52321.72;5034000;28;20317;-78
2023/07/13 12:15:36;;;;;;;;;;;;;;;-144.99;95.00;52315.59;5028478;28;20125;-78
2023/07/13 12:18:03;;;;;;;;;;;;;;;-144.99;95.83;52333.94;5025494;28;19979;-78
2023/07/13 12:20:34;;;;;;;;;;;;;;;-144.99;96.47;52313.56;5037952;28;19944;-77
2023/07/13 12:23:04;;;;;;;;;;;;;;;-144.99;96.70;52280.97;5030887;28;20505;-78
2023/07/13 12:25:31;;;;;;;;;;;;;;;-144.99;96.43;52276.88;5033123;28;19947;-78